sensor_id;sensor_type;location;lat;lon;timestamp;P1;durP1;ratioP1;P2;durP2;ratioP2
80313;SDS011;69628;47.516;18.828;2023-09-19T00:00:29;12.60;;;4.72;;
80313;SDS011;69628;47.516;18.828;2023-09-19T00:01:29;12.35;;;4.03;;
80313;SDS011;69628;47.516;18.828;2023-09-19T00:02:30;9.70;;;3.92;;
80313;SDS011;69628;47.516;18.828;2023-09-19T00:03:31;15.35;;;4.93;;
80313;SDS011;69628;47.516;18.828;2023-09-19T00:04:31;8.88;;;4.78;;
80313;SDS011;69628;47.516;18.828;2023-09-19T00:05:36;17.25;;;4.50;;
80313;SDS011;69628;47.516;18.828;2023-09-19T00:06:38;7.57;;;4.20;;
80313;SDS011;69628;47.516;18.828;2023-09-19T00:07:39;13.68;;;4.50;;
80313;SDS011;69628;47.516;18.828;2023-09-19T00:08:40;15.40;;;4.32;;
80313;SDS011;69628;47.516;18.828;2023-09-19T00:09:44;9.35;;;4.13;;
80313;SDS011;69628;47.516;18.828;2023-09-19T00:10:44;7.68;;;4.43;;
80313;SDS011;69628;47.516;18.828;2023-09-19T00:11:44;8.27;;;4.70;;
80313;SDS011;69628;47.516;18.828;2023-09-19T00:12:47;11.68;;;4.47;;
80313;SDS011;69628;47.516;18.828;2023-09-19T00:13:48;7.43;;;4.22;;
80313;SDS011;69628;47.516;18.828;2023-09-19T00:14:50;18.60;;;4.60;;
80313;SDS011;69628;47.516;18.828;2023-09-19T00:15:51;11.30;;;4.63;;
80313;SDS011;69628;47.516;18.828;2023-09-19T00:16:51;7.97;;;3.78;;
80313;SDS011;69628;47.516;18.828;2023-09-19T00:17:52;7.93;;;4.35;;
80313;SDS011;69628;47.516;18.828;2023-09-19T00:18:52;10.43;;;5.03;;
80313;SDS011;69628;47.516;18.828;2023-09-19T00:19:52;10.23;;;5.47;;
80313;SDS011;69628;47.516;18.828;2023-09-19T00:20:53;7.68;;;4.05;;
80313;SDS011;69628;47.516;18.828;2023-09-19T00:21:57;8.07;;;4.13;;
80313;SDS011;69628;47.516;18.828;2023-09-19T00:22:57;6.40;;;4.50;;
80313;SDS011;69628;47.516;18.828;2023-09-19T00:24:05;12.80;;;4.20;;
80313;SDS011;69628;47.516;18.828;2023-09-19T00:25:06;11.93;;;4.25;;
80313;SDS011;69628;47.516;18.828;2023-09-19T00:26:06;10.88;;;3.80;;
80313;SDS011;69628;47.516;18.828;2023-09-19T00:27:07;5.97;;;4.13;;
80313;SDS011;69628;47.516;18.828;2023-09-19T00:28:08;13.30;;;4.32;;
80313;SDS011;69628;47.516;18.828;2023-09-19T00:29:09;10.40;;;4.22;;
80313;SDS011;69628;47.516;18.828;2023-09-19T00:30:11;6.10;;;4.07;;
80313;SDS011;69628;47.516;18.828;2023-09-19T00:31:21;8.07;;;4.72;;
80313;SDS011;69628;47.516;18.828;2023-09-19T00:32:25;7.75;;;4.55;;
80313;SDS011;69628;47.516;18.828;2023-09-19T00:33:30;7.95;;;4.63;;
80313;SDS011;69628;47.516;18.828;2023-09-19T00:34:31;15.55;;;5.07;;
80313;SDS011;69628;47.516;18.828;2023-09-19T00:35:34;12.07;;;4.60;;
80313;SDS011;69628;47.516;18.828;2023-09-19T00:36:34;9.70;;;4.95;;
80313;SDS011;69628;47.516;18.828;2023-09-19T00:37:35;15.77;;;5.38;;
80313;SDS011;69628;47.516;18.828;2023-09-19T00:38:35;10.07;;;4.60;;
80313;SDS011;69628;47.516;18.828;2023-09-19T00:39:36;12.13;;;4.43;;
80313;SDS011;69628;47.516;18.828;2023-09-19T00:40:37;8.63;;;4.93;;
80313;SDS011;69628;47.516;18.828;2023-09-19T00:41:37;14.32;;;4.43;;
80313;SDS011;69628;47.516;18.828;2023-09-19T00:42:38;9.95;;;4.35;;
80313;SDS011;69628;47.516;18.828;2023-09-19T00:43:40;10.52;;;4.57;;
80313;SDS011;69628;47.516;18.828;2023-09-19T00:44:40;9.23;;;4.22;;
80313;SDS011;69628;47.516;18.828;2023-09-19T00:45:44;6.95;;;3.97;;
80313;SDS011;69628;47.516;18.828;2023-09-19T00:46:48;12.43;;;4.72;;
80313;SDS011;69628;47.516;18.828;2023-09-19T00:47:50;9.00;;;4.85;;
80313;SDS011;69628;47.516;18.828;2023-09-19T00:48:51;11.13;;;4.97;;
80313;SDS011;69628;47.516;18.828;2023-09-19T00:49:51;16.63;;;4.75;;
80313;SDS011;69628;47.516;18.828;2023-09-19T00:50:52;12.07;;;4.30;;
80313;SDS011;69628;47.516;18.828;2023-09-19T00:51:53;10.05;;;4.10;;
80313;SDS011;69628;47.516;18.828;2023-09-19T00:52:55;9.65;;;4.80;;
80313;SDS011;69628;47.516;18.828;2023-09-19T00:53:58;8.65;;;4.80;;
80313;SDS011;69628;47.516;18.828;2023-09-19T00:54:59;6.47;;;4.45;;
80313;SDS011;69628;47.516;18.828;2023-09-19T00:56:00;13.77;;;4.43;;
80313;SDS011;69628;47.516;18.828;2023-09-19T00:57:02;7.05;;;4.35;;
80313;SDS011;69628;47.516;18.828;2023-09-19T00:58:03;15.38;;;5.32;;
80313;SDS011;69628;47.516;18.828;2023-09-19T00:59:06;8.90;;;4.47;;
80313;SDS011;69628;47.516;18.828;2023-09-19T01:00:07;11.90;;;4.80;;
80313;SDS011;69628;47.516;18.828;2023-09-19T01:01:15;7.85;;;4.53;;
80313;SDS011;69628;47.516;18.828;2023-09-19T01:02:16;7.38;;;4.78;;
80313;SDS011;69628;47.516;18.828;2023-09-19T01:03:17;10.45;;;4.47;;
80313;SDS011;69628;47.516;18.828;2023-09-19T01:04:18;5.32;;;3.67;;
80313;SDS011;69628;47.516;18.828;2023-09-19T01:05:18;6.43;;;4.35;;
80313;SDS011;69628;47.516;18.828;2023-09-19T01:06:19;10.70;;;4.53;;
80313;SDS011;69628;47.516;18.828;2023-09-19T01:07:19;7.25;;;4.57;;
80313;SDS011;69628;47.516;18.828;2023-09-19T01:08:20;23.70;;;5.68;;
80313;SDS011;69628;47.516;18.828;2023-09-19T01:09:20;9.80;;;4.68;;
80313;SDS011;69628;47.516;18.828;2023-09-19T01:10:21;13.95;;;5.03;;
80313;SDS011;69628;47.516;18.828;2023-09-19T01:11:28;12.85;;;5.05;;
80313;SDS011;69628;47.516;18.828;2023-09-19T01:18:13;8.50;;;4.28;;
80313;SDS011;69628;47.516;18.828;2023-09-19T01:20:39;9.68;;;4.97;;
80313;SDS011;69628;47.516;18.828;2023-09-19T01:26:10;13.35;;;4.57;;
80313;SDS011;69628;47.516;18.828;2023-09-19T01:27:25;7.93;;;4.78;;
80313;SDS011;69628;47.516;18.828;2023-09-19T01:28:36;8.80;;;5.03;;
80313;SDS011;69628;47.516;18.828;2023-09-19T01:29:47;8.82;;;4.85;;
80313;SDS011;69628;47.516;18.828;2023-09-19T01:30:49;12.93;;;5.30;;
80313;SDS011;69628;47.516;18.828;2023-09-19T01:31:54;12.80;;;4.65;;
80313;SDS011;69628;47.516;18.828;2023-09-19T01:32:54;8.20;;;4.80;;
80313;SDS011;69628;47.516;18.828;2023-09-19T01:33:56;11.55;;;5.20;;
80313;SDS011;69628;47.516;18.828;2023-09-19T01:35:00;7.72;;;4.80;;
80313;SDS011;69628;47.516;18.828;2023-09-19T01:36:04;18.70;;;5.05;;
80313;SDS011;69628;47.516;18.828;2023-09-19T01:37:05;13.32;;;5.15;;
80313;SDS011;69628;47.516;18.828;2023-09-19T01:38:06;13.63;;;5.40;;
80313;SDS011;69628;47.516;18.828;2023-09-19T01:39:11;13.10;;;5.38;;
80313;SDS011;69628;47.516;18.828;2023-09-19T01:40:14;12.13;;;4.88;;
80313;SDS011;69628;47.516;18.828;2023-09-19T01:41:21;13.63;;;5.00;;
80313;SDS011;69628;47.516;18.828;2023-09-19T01:43:35;14.75;;;5.28;;
80313;SDS011;69628;47.516;18.828;2023-09-19T01:45:06;9.68;;;5.13;;
80313;SDS011;69628;47.516;18.828;2023-09-19T01:46:28;9.85;;;5.28;;
80313;SDS011;69628;47.516;18.828;2023-09-19T01:47:50;10.68;;;5.22;;
80313;SDS011;69628;47.516;18.828;2023-09-19T01:51:20;9.15;;;5.32;;
80313;SDS011;69628;47.516;18.828;2023-09-19T01:52:22;9.20;;;5.55;;
80313;SDS011;69628;47.516;18.828;2023-09-19T01:53:30;15.63;;;5.47;;
80313;SDS011;69628;47.516;18.828;2023-09-19T01:54:36;7.43;;;4.65;;
80313;SDS011;69628;47.516;18.828;2023-09-19T01:55:43;15.00;;;5.35;;
80313;SDS011;69628;47.516;18.828;2023-09-19T01:56:50;9.73;;;5.38;;
80313;SDS011;69628;47.516;18.828;2023-09-19T01:58:08;10.23;;;5.20;;
80313;SDS011;69628;47.516;18.828;2023-09-19T01:59:20;14.82;;;5.35;;
80313;SDS011;69628;47.516;18.828;2023-09-19T02:00:23;11.55;;;5.03;;
80313;SDS011;69628;47.516;18.828;2023-09-19T02:01:24;12.20;;;5.20;;
80313;SDS011;69628;47.516;18.828;2023-09-19T02:02:25;8.48;;;4.85;;
80313;SDS011;69628;47.516;18.828;2023-09-19T02:03:26;11.48;;;5.47;;
80313;SDS011;69628;47.516;18.828;2023-09-19T02:04:28;12.27;;;5.18;;
80313;SDS011;69628;47.516;18.828;2023-09-19T02:05:29;9.85;;;5.05;;
80313;SDS011;69628;47.516;18.828;2023-09-19T02:06:29;10.85;;;5.13;;
80313;SDS011;69628;47.516;18.828;2023-09-19T02:07:30;10.75;;;5.28;;
80313;SDS011;69628;47.516;18.828;2023-09-19T02:08:37;9.27;;;5.30;;
80313;SDS011;69628;47.516;18.828;2023-09-19T02:09:38;12.02;;;5.25;;
80313;SDS011;69628;47.516;18.828;2023-09-19T02:10:39;11.50;;;5.00;;
80313;SDS011;69628;47.516;18.828;2023-09-19T02:11:41;13.30;;;6.07;;
80313;SDS011;69628;47.516;18.828;2023-09-19T02:12:42;20.17;;;5.35;;
80313;SDS011;69628;47.516;18.828;2023-09-19T02:13:42;9.88;;;4.85;;
80313;SDS011;69628;47.516;18.828;2023-09-19T02:14:43;8.38;;;5.45;;
80313;SDS011;69628;47.516;18.828;2023-09-19T02:15:43;13.10;;;6.20;;
80313;SDS011;69628;47.516;18.828;2023-09-19T02:16:46;14.57;;;5.10;;
80313;SDS011;69628;47.516;18.828;2023-09-19T02:17:47;13.07;;;4.82;;
80313;SDS011;69628;47.516;18.828;2023-09-19T02:18:48;11.90;;;5.45;;
80313;SDS011;69628;47.516;18.828;2023-09-19T02:19:55;9.13;;;5.50;;
80313;SDS011;69628;47.516;18.828;2023-09-19T02:20:55;20.13;;;5.35;;
80313;SDS011;69628;47.516;18.828;2023-09-19T02:21:56;9.73;;;5.03;;
80313;SDS011;69628;47.516;18.828;2023-09-19T02:22:56;15.00;;;5.38;;
80313;SDS011;69628;47.516;18.828;2023-09-19T02:23:57;12.02;;;4.70;;
80313;SDS011;69628;47.516;18.828;2023-09-19T02:24:58;10.07;;;5.45;;
80313;SDS011;69628;47.516;18.828;2023-09-19T02:26:00;11.80;;;5.25;;
80313;SDS011;69628;47.516;18.828;2023-09-19T02:27:01;14.00;;;5.32;;
80313;SDS011;69628;47.516;18.828;2023-09-19T02:28:04;11.48;;;5.47;;
80313;SDS011;69628;47.516;18.828;2023-09-19T02:29:05;13.55;;;5.68;;
80313;SDS011;69628;47.516;18.828;2023-09-19T02:30:06;10.85;;;5.45;;
80313;SDS011;69628;47.516;18.828;2023-09-19T02:31:06;6.78;;;4.28;;
80313;SDS011;69628;47.516;18.828;2023-09-19T02:32:07;14.73;;;4.80;;
80313;SDS011;69628;47.516;18.828;2023-09-19T02:33:09;11.48;;;4.82;;
80313;SDS011;69628;47.516;18.828;2023-09-19T02:34:09;8.95;;;5.22;;
80313;SDS011;69628;47.516;18.828;2023-09-19T02:35:10;10.10;;;5.38;;
80313;SDS011;69628;47.516;18.828;2023-09-19T02:36:11;12.32;;;4.85;;
80313;SDS011;69628;47.516;18.828;2023-09-19T02:37:11;7.95;;;5.22;;
80313;SDS011;69628;47.516;18.828;2023-09-19T02:38:13;9.70;;;5.50;;
80313;SDS011;69628;47.516;18.828;2023-09-19T02:39:14;7.60;;;4.88;;
80313;SDS011;69628;47.516;18.828;2023-09-19T02:40:15;7.32;;;4.53;;
80313;SDS011;69628;47.516;18.828;2023-09-19T02:41:25;11.20;;;5.00;;
80313;SDS011;69628;47.516;18.828;2023-09-19T02:42:27;10.00;;;5.10;;
80313;SDS011;69628;47.516;18.828;2023-09-19T02:43:27;13.10;;;4.90;;
80313;SDS011;69628;47.516;18.828;2023-09-19T02:44:28;9.75;;;5.30;;
80313;SDS011;69628;47.516;18.828;2023-09-19T02:45:28;8.70;;;4.82;;
80313;SDS011;69628;47.516;18.828;2023-09-19T02:46:30;12.98;;;5.78;;
80313;SDS011;69628;47.516;18.828;2023-09-19T02:47:30;13.35;;;5.05;;
80313;SDS011;69628;47.516;18.828;2023-09-19T02:48:31;8.05;;;5.07;;
80313;SDS011;69628;47.516;18.828;2023-09-19T02:49:32;7.95;;;5.65;;
80313;SDS011;69628;47.516;18.828;2023-09-19T02:50:32;10.95;;;4.82;;
80313;SDS011;69628;47.516;18.828;2023-09-19T02:51:33;9.40;;;5.70;;
80313;SDS011;69628;47.516;18.828;2023-09-19T02:52:34;10.82;;;4.95;;
80313;SDS011;69628;47.516;18.828;2023-09-19T02:53:35;10.05;;;5.47;;
80313;SDS011;69628;47.516;18.828;2023-09-19T02:54:35;6.55;;;4.38;;
80313;SDS011;69628;47.516;18.828;2023-09-19T02:55:36;8.15;;;4.80;;
80313;SDS011;69628;47.516;18.828;2023-09-19T02:56:38;11.88;;;4.93;;
80313;SDS011;69628;47.516;18.828;2023-09-19T02:57:38;9.20;;;5.28;;
80313;SDS011;69628;47.516;18.828;2023-09-19T02:58:43;8.63;;;4.75;;
80313;SDS011;69628;47.516;18.828;2023-09-19T02:59:43;9.18;;;5.60;;
80313;SDS011;69628;47.516;18.828;2023-09-19T03:00:44;12.77;;;4.65;;
80313;SDS011;69628;47.516;18.828;2023-09-19T03:01:47;11.70;;;5.00;;
80313;SDS011;69628;47.516;18.828;2023-09-19T03:02:53;8.50;;;4.78;;
80313;SDS011;69628;47.516;18.828;2023-09-19T03:03:54;13.68;;;5.05;;
80313;SDS011;69628;47.516;18.828;2023-09-19T03:04:55;9.50;;;5.63;;
80313;SDS011;69628;47.516;18.828;2023-09-19T03:05:56;9.48;;;5.53;;
80313;SDS011;69628;47.516;18.828;2023-09-19T03:06:58;11.68;;;5.47;;
80313;SDS011;69628;47.516;18.828;2023-09-19T03:08:00;8.63;;;4.97;;
80313;SDS011;69628;47.516;18.828;2023-09-19T03:09:04;7.43;;;4.60;;
80313;SDS011;69628;47.516;18.828;2023-09-19T03:10:12;17.08;;;4.82;;
80313;SDS011;69628;47.516;18.828;2023-09-19T03:11:13;21.17;;;5.65;;
80313;SDS011;69628;47.516;18.828;2023-09-19T03:12:15;10.85;;;5.18;;
80313;SDS011;69628;47.516;18.828;2023-09-19T03:13:16;12.18;;;5.30;;
80313;SDS011;69628;47.516;18.828;2023-09-19T03:14:17;10.07;;;5.18;;
80313;SDS011;69628;47.516;18.828;2023-09-19T03:15:20;10.77;;;5.25;;
80313;SDS011;69628;47.516;18.828;2023-09-19T03:16:21;9.65;;;5.25;;
80313;SDS011;69628;47.516;18.828;2023-09-19T03:17:22;9.07;;;5.00;;
80313;SDS011;69628;47.516;18.828;2023-09-19T03:18:22;13.85;;;5.47;;
80313;SDS011;69628;47.516;18.828;2023-09-19T03:19:23;13.65;;;5.18;;
80313;SDS011;69628;47.516;18.828;2023-09-19T03:20:23;12.35;;;5.18;;
80313;SDS011;69628;47.516;18.828;2023-09-19T03:21:25;8.13;;;5.25;;
80313;SDS011;69628;47.516;18.828;2023-09-19T03:22:26;14.95;;;5.35;;
80313;SDS011;69628;47.516;18.828;2023-09-19T03:23:27;8.65;;;4.72;;
80313;SDS011;69628;47.516;18.828;2023-09-19T03:24:28;10.75;;;5.97;;
80313;SDS011;69628;47.516;18.828;2023-09-19T03:25:29;12.32;;;5.25;;
80313;SDS011;69628;47.516;18.828;2023-09-19T03:26:30;9.95;;;5.28;;
80313;SDS011;69628;47.516;18.828;2023-09-19T03:27:30;13.00;;;5.50;;
80313;SDS011;69628;47.516;18.828;2023-09-19T03:28:32;12.38;;;5.57;;
80313;SDS011;69628;47.516;18.828;2023-09-19T03:29:33;18.80;;;5.72;;
80313;SDS011;69628;47.516;18.828;2023-09-19T03:30:34;10.52;;;5.55;;
80313;SDS011;69628;47.516;18.828;2023-09-19T03:31:34;13.18;;;4.78;;
80313;SDS011;69628;47.516;18.828;2023-09-19T03:32:37;19.63;;;6.03;;
80313;SDS011;69628;47.516;18.828;2023-09-19T03:33:43;12.55;;;5.03;;
80313;SDS011;69628;47.516;18.828;2023-09-19T03:34:43;13.52;;;5.28;;
80313;SDS011;69628;47.516;18.828;2023-09-19T03:35:45;10.48;;;5.25;;
80313;SDS011;69628;47.516;18.828;2023-09-19T03:36:52;10.27;;;5.13;;
80313;SDS011;69628;47.516;18.828;2023-09-19T03:37:52;9.18;;;5.43;;
80313;SDS011;69628;47.516;18.828;2023-09-19T03:38:53;11.98;;;5.32;;
80313;SDS011;69628;47.516;18.828;2023-09-19T03:39:53;9.93;;;5.60;;
80313;SDS011;69628;47.516;18.828;2023-09-19T03:40:54;9.10;;;5.15;;
80313;SDS011;69628;47.516;18.828;2023-09-19T03:41:54;12.00;;;5.57;;
80313;SDS011;69628;47.516;18.828;2023-09-19T03:42:54;10.38;;;4.57;;
80313;SDS011;69628;47.516;18.828;2023-09-19T03:43:55;12.82;;;5.18;;
80313;SDS011;69628;47.516;18.828;2023-09-19T03:44:56;7.97;;;5.03;;
80313;SDS011;69628;47.516;18.828;2023-09-19T03:46:00;13.25;;;4.30;;
80313;SDS011;69628;47.516;18.828;2023-09-19T03:47:03;13.35;;;3.95;;
80313;SDS011;69628;47.516;18.828;2023-09-19T03:48:08;7.82;;;4.00;;
80313;SDS011;69628;47.516;18.828;2023-09-19T03:49:09;14.70;;;4.72;;
80313;SDS011;69628;47.516;18.828;2023-09-19T03:50:10;10.60;;;3.83;;
80313;SDS011;69628;47.516;18.828;2023-09-19T03:51:17;8.43;;;3.83;;
80313;SDS011;69628;47.516;18.828;2023-09-19T03:52:17;5.30;;;3.30;;
80313;SDS011;69628;47.516;18.828;2023-09-19T03:53:18;7.25;;;3.58;;
80313;SDS011;69628;47.516;18.828;2023-09-19T03:54:18;5.05;;;3.38;;
80313;SDS011;69628;47.516;18.828;2023-09-19T03:55:19;9.07;;;4.00;;
80313;SDS011;69628;47.516;18.828;2023-09-19T03:56:19;8.23;;;4.07;;
80313;SDS011;69628;47.516;18.828;2023-09-19T03:57:20;8.43;;;3.75;;
80313;SDS011;69628;47.516;18.828;2023-09-19T03:58:20;8.77;;;3.45;;
80313;SDS011;69628;47.516;18.828;2023-09-19T03:59:21;7.60;;;3.33;;
80313;SDS011;69628;47.516;18.828;2023-09-19T04:00:22;6.50;;;3.20;;
80313;SDS011;69628;47.516;18.828;2023-09-19T04:01:23;6.95;;;3.75;;
80313;SDS011;69628;47.516;18.828;2023-09-19T04:02:24;7.38;;;3.40;;
80313;SDS011;69628;47.516;18.828;2023-09-19T04:03:24;5.75;;;3.55;;
80313;SDS011;69628;47.516;18.828;2023-09-19T04:04:34;7.72;;;3.30;;
80313;SDS011;69628;47.516;18.828;2023-09-19T04:05:34;7.90;;;3.25;;
80313;SDS011;69628;47.516;18.828;2023-09-19T04:06:35;9.57;;;3.03;;
80313;SDS011;69628;47.516;18.828;2023-09-19T04:07:36;7.60;;;2.40;;
80313;SDS011;69628;47.516;18.828;2023-09-19T04:08:36;6.25;;;2.70;;
80313;SDS011;69628;47.516;18.828;2023-09-19T04:09:36;4.47;;;2.20;;
80313;SDS011;69628;47.516;18.828;2023-09-19T04:10:37;4.00;;;2.10;;
80313;SDS011;69628;47.516;18.828;2023-09-19T04:11:37;7.97;;;2.58;;
80313;SDS011;69628;47.516;18.828;2023-09-19T04:12:37;5.40;;;2.70;;
80313;SDS011;69628;47.516;18.828;2023-09-19T04:13:38;6.93;;;2.15;;
80313;SDS011;69628;47.516;18.828;2023-09-19T04:14:38;3.20;;;2.03;;
80313;SDS011;69628;47.516;18.828;2023-09-19T04:15:39;4.10;;;1.90;;
80313;SDS011;69628;47.516;18.828;2023-09-19T04:16:41;2.60;;;1.83;;
80313;SDS011;69628;47.516;18.828;2023-09-19T04:17:41;2.38;;;1.30;;
80313;SDS011;69628;47.516;18.828;2023-09-19T04:18:41;4.18;;;2.05;;
80313;SDS011;69628;47.516;18.828;2023-09-19T04:19:42;7.03;;;1.90;;
80313;SDS011;69628;47.516;18.828;2023-09-19T04:20:47;2.58;;;1.40;;
80313;SDS011;69628;47.516;18.828;2023-09-19T04:21:48;6.70;;;1.58;;
80313;SDS011;69628;47.516;18.828;2023-09-19T04:22:48;3.28;;;1.85;;
80313;SDS011;69628;47.516;18.828;2023-09-19T04:23:49;3.35;;;1.50;;
80313;SDS011;69628;47.516;18.828;2023-09-19T04:24:49;1.80;;;1.17;;
80313;SDS011;69628;47.516;18.828;2023-09-19T04:25:50;3.03;;;1.58;;
80313;SDS011;69628;47.516;18.828;2023-09-19T04:26:51;1.50;;;1.40;;
80313;SDS011;69628;47.516;18.828;2023-09-19T04:27:52;2.65;;;1.50;;
80313;SDS011;69628;47.516;18.828;2023-09-19T04:28:52;6.57;;;1.33;;
80313;SDS011;69628;47.516;18.828;2023-09-19T04:29:53;3.00;;;1.35;;
80313;SDS011;69628;47.516;18.828;2023-09-19T04:30:53;5.70;;;1.25;;
80313;SDS011;69628;47.516;18.828;2023-09-19T04:31:55;1.85;;;1.40;;
80313;SDS011;69628;47.516;18.828;2023-09-19T04:32:57;3.83;;;1.10;;
80313;SDS011;69628;47.516;18.828;2023-09-19T04:33:57;5.68;;;1.83;;
80313;SDS011;69628;47.516;18.828;2023-09-19T04:35:05;4.43;;;1.10;;
80313;SDS011;69628;47.516;18.828;2023-09-19T04:36:10;11.20;;;1.77;;
80313;SDS011;69628;47.516;18.828;2023-09-19T04:37:10;1.10;;;1.00;;
80313;SDS011;69628;47.516;18.828;2023-09-19T04:38:11;5.15;;;1.20;;
80313;SDS011;69628;47.516;18.828;2023-09-19T04:39:11;5.85;;;1.25;;
80313;SDS011;69628;47.516;18.828;2023-09-19T04:40:13;1.38;;;1.20;;
80313;SDS011;69628;47.516;18.828;2023-09-19T04:41:17;2.78;;;1.35;;
80313;SDS011;69628;47.516;18.828;2023-09-19T04:42:17;6.68;;;1.20;;
80313;SDS011;69628;47.516;18.828;2023-09-19T04:43:19;3.00;;;1.27;;
80313;SDS011;69628;47.516;18.828;2023-09-19T04:44:19;4.80;;;1.50;;
80313;SDS011;69628;47.516;18.828;2023-09-19T04:45:19;1.77;;;1.25;;
80313;SDS011;69628;47.516;18.828;2023-09-19T04:46:20;1.00;;;1.00;;
80313;SDS011;69628;47.516;18.828;2023-09-19T04:47:20;3.63;;;1.00;;
80313;SDS011;69628;47.516;18.828;2023-09-19T04:48:22;1.20;;;1.10;;
80313;SDS011;69628;47.516;18.828;2023-09-19T04:49:25;1.23;;;0.88;;
80313;SDS011;69628;47.516;18.828;2023-09-19T04:50:25;2.15;;;1.45;;
80313;SDS011;69628;47.516;18.828;2023-09-19T04:51:27;1.63;;;1.10;;
80313;SDS011;69628;47.516;18.828;2023-09-19T04:52:32;1.10;;;1.00;;
80313;SDS011;69628;47.516;18.828;2023-09-19T04:53:33;1.98;;;1.00;;
80313;SDS011;69628;47.516;18.828;2023-09-19T04:54:33;1.88;;;1.30;;
80313;SDS011;69628;47.516;18.828;2023-09-19T04:55:34;6.13;;;1.15;;
80313;SDS011;69628;47.516;18.828;2023-09-19T04:56:34;2.05;;;0.95;;
80313;SDS011;69628;47.516;18.828;2023-09-19T04:57:34;3.70;;;1.10;;
80313;SDS011;69628;47.516;18.828;2023-09-19T04:58:36;0.68;;;0.68;;
80313;SDS011;69628;47.516;18.828;2023-09-19T04:59:37;6.07;;;1.02;;
80313;SDS011;69628;47.516;18.828;2023-09-19T05:00:37;3.83;;;0.70;;
80313;SDS011;69628;47.516;18.828;2023-09-19T05:01:37;1.60;;;1.00;;
80313;SDS011;69628;47.516;18.828;2023-09-19T05:02:38;0.80;;;0.70;;
80313;SDS011;69628;47.516;18.828;2023-09-19T05:03:39;1.15;;;0.88;;
80313;SDS011;69628;47.516;18.828;2023-09-19T05:04:40;4.65;;;0.93;;
80313;SDS011;69628;47.516;18.828;2023-09-19T05:05:40;1.33;;;1.00;;
80313;SDS011;69628;47.516;18.828;2023-09-19T05:06:41;2.85;;;1.10;;
80313;SDS011;69628;47.516;18.828;2023-09-19T05:07:42;2.60;;;0.70;;
80313;SDS011;69628;47.516;18.828;2023-09-19T05:08:42;11.35;;;1.08;;
80313;SDS011;69628;47.516;18.828;2023-09-19T05:09:43;1.70;;;0.75;;
80313;SDS011;69628;47.516;18.828;2023-09-19T05:10:43;1.83;;;0.93;;
80313;SDS011;69628;47.516;18.828;2023-09-19T05:11:45;5.00;;;1.17;;
80313;SDS011;69628;47.516;18.828;2023-09-19T05:12:46;1.58;;;0.90;;
80313;SDS011;69628;47.516;18.828;2023-09-19T05:13:48;13.35;;;1.30;;
80313;SDS011;69628;47.516;18.828;2023-09-19T05:15:53;1.50;;;0.80;;
80313;SDS011;69628;47.516;18.828;2023-09-19T05:16:53;0.40;;;0.40;;
80313;SDS011;69628;47.516;18.828;2023-09-19T05:17:53;0.88;;;0.70;;
80313;SDS011;69628;47.516;18.828;2023-09-19T05:18:55;1.25;;;0.80;;
80313;SDS011;69628;47.516;18.828;2023-09-19T05:19:56;0.60;;;0.60;;
80313;SDS011;69628;47.516;18.828;2023-09-19T05:20:58;1.08;;;0.80;;
80313;SDS011;69628;47.516;18.828;2023-09-19T05:21:58;1.00;;;0.80;;
80313;SDS011;69628;47.516;18.828;2023-09-19T05:23:02;0.68;;;0.60;;
80313;SDS011;69628;47.516;18.828;2023-09-19T05:24:05;0.65;;;0.65;;
80313;SDS011;69628;47.516;18.828;2023-09-19T05:25:09;0.95;;;0.70;;
80313;SDS011;69628;47.516;18.828;2023-09-19T05:26:10;2.60;;;0.90;;
80313;SDS011;69628;47.516;18.828;2023-09-19T05:27:11;1.38;;;0.95;;
80313;SDS011;69628;47.516;18.828;2023-09-19T05:28:12;0.98;;;0.88;;
80313;SDS011;69628;47.516;18.828;2023-09-19T05:29:14;0.95;;;0.70;;
80313;SDS011;69628;47.516;18.828;2023-09-19T05:30:15;0.90;;;0.90;;
80313;SDS011;69628;47.516;18.828;2023-09-19T05:31:15;1.52;;;1.00;;
80313;SDS011;69628;47.516;18.828;2023-09-19T05:32:16;0.80;;;0.80;;
80313;SDS011;69628;47.516;18.828;2023-09-19T05:33:19;1.05;;;0.95;;
80313;SDS011;69628;47.516;18.828;2023-09-19T05:34:20;0.93;;;0.85;;
80313;SDS011;69628;47.516;18.828;2023-09-19T05:35:20;1.30;;;0.90;;
80313;SDS011;69628;47.516;18.828;2023-09-19T05:36:24;2.53;;;1.40;;
80313;SDS011;69628;47.516;18.828;2023-09-19T05:37:24;1.15;;;1.02;;
80313;SDS011;69628;47.516;18.828;2023-09-19T05:38:26;1.70;;;0.77;;
80313;SDS011;69628;47.516;18.828;2023-09-19T05:39:27;3.40;;;0.95;;
80313;SDS011;69628;47.516;18.828;2023-09-19T05:40:27;1.63;;;1.05;;
80313;SDS011;69628;47.516;18.828;2023-09-19T05:41:28;1.75;;;0.95;;
80313;SDS011;69628;47.516;18.828;2023-09-19T05:42:28;1.15;;;0.93;;
80313;SDS011;69628;47.516;18.828;2023-09-19T05:43:28;1.30;;;0.95;;
80313;SDS011;69628;47.516;18.828;2023-09-19T05:44:29;3.10;;;0.93;;
80313;SDS011;69628;47.516;18.828;2023-09-19T05:45:29;2.70;;;1.35;;
80313;SDS011;69628;47.516;18.828;2023-09-19T05:46:30;0.47;;;0.47;;
80313;SDS011;69628;47.516;18.828;2023-09-19T05:47:31;0.60;;;0.60;;
80313;SDS011;69628;47.516;18.828;2023-09-19T05:48:31;2.92;;;1.05;;
80313;SDS011;69628;47.516;18.828;2023-09-19T05:49:32;1.60;;;0.90;;
80313;SDS011;69628;47.516;18.828;2023-09-19T05:50:33;1.27;;;0.70;;
80313;SDS011;69628;47.516;18.828;2023-09-19T05:51:34;2.95;;;1.00;;
80313;SDS011;69628;47.516;18.828;2023-09-19T05:52:35;0.50;;;0.50;;
80313;SDS011;69628;47.516;18.828;2023-09-19T05:53:37;3.05;;;1.27;;
80313;SDS011;69628;47.516;18.828;2023-09-19T05:54:37;1.17;;;0.80;;
80313;SDS011;69628;47.516;18.828;2023-09-19T05:55:38;0.88;;;0.65;;
80313;SDS011;69628;47.516;18.828;2023-09-19T05:56:39;1.45;;;0.85;;
80313;SDS011;69628;47.516;18.828;2023-09-19T05:57:39;1.20;;;0.80;;
80313;SDS011;69628;47.516;18.828;2023-09-19T05:58:39;2.70;;;1.40;;
80313;SDS011;69628;47.516;18.828;2023-09-19T05:59:42;9.75;;;1.27;;
80313;SDS011;69628;47.516;18.828;2023-09-19T06:00:43;2.75;;;1.20;;
80313;SDS011;69628;47.516;18.828;2023-09-19T06:01:44;0.95;;;0.88;;
80313;SDS011;69628;47.516;18.828;2023-09-19T06:02:48;1.02;;;1.00;;
80313;SDS011;69628;47.516;18.828;2023-09-19T06:03:52;1.75;;;0.55;;
80313;SDS011;69628;47.516;18.828;2023-09-19T06:04:53;1.27;;;0.63;;
80313;SDS011;69628;47.516;18.828;2023-09-19T06:05:55;0.93;;;0.60;;
80313;SDS011;69628;47.516;18.828;2023-09-19T06:06:57;1.23;;;0.73;;
80313;SDS011;69628;47.516;18.828;2023-09-19T06:07:58;0.90;;;0.73;;
80313;SDS011;69628;47.516;18.828;2023-09-19T06:09:00;1.35;;;1.00;;
80313;SDS011;69628;47.516;18.828;2023-09-19T06:10:00;2.03;;;0.90;;
80313;SDS011;69628;47.516;18.828;2023-09-19T06:11:00;0.90;;;0.90;;
80313;SDS011;69628;47.516;18.828;2023-09-19T06:12:01;3.22;;;0.77;;
80313;SDS011;69628;47.516;18.828;2023-09-19T06:13:03;3.72;;;1.17;;
80313;SDS011;69628;47.516;18.828;2023-09-19T06:14:09;2.28;;;0.90;;
80313;SDS011;69628;47.516;18.828;2023-09-19T06:15:11;1.45;;;0.85;;
80313;SDS011;69628;47.516;18.828;2023-09-19T06:16:15;1.02;;;0.85;;
80313;SDS011;69628;47.516;18.828;2023-09-19T06:17:16;2.40;;;1.20;;
80313;SDS011;69628;47.516;18.828;2023-09-19T06:18:17;1.55;;;1.08;;
80313;SDS011;69628;47.516;18.828;2023-09-19T06:19:19;1.40;;;1.20;;
80313;SDS011;69628;47.516;18.828;2023-09-19T06:20:23;2.70;;;0.73;;
80313;SDS011;69628;47.516;18.828;2023-09-19T06:21:24;0.88;;;0.88;;
80313;SDS011;69628;47.516;18.828;2023-09-19T06:22:24;3.22;;;1.70;;